createdAt,value
2023-02-20T00:00:54.341Z,52.93
2023-02-20T00:01:54.264Z,52.77
2023-02-20T00:02:54.247Z,53.28
2023-02-20T00:03:54.273Z,52.49
2023-02-20T00:04:54.262Z,52.40
2023-02-20T00:05:54.237Z,52.85
2023-02-20T00:06:54.219Z,52.09
2023-02-20T00:07:54.191Z,52.48
2023-02-20T00:08:54.189Z,52.78
2023-02-20T00:09:54.180Z,52.76
2023-02-20T00:10:54.174Z,52.30
2023-02-20T00:11:54.174Z,52.58
2023-02-20T00:12:54.153Z,52.37
2023-02-20T00:13:54.144Z,52.41
2023-02-20T00:14:54.140Z,52.57
2023-02-20T00:15:54.201Z,52.83
2023-02-20T00:16:54.133Z,52.83
2023-02-20T00:17:54.111Z,52.68
2023-02-20T00:18:54.132Z,53.39
2023-02-20T00:19:54.089Z,52.29
2023-02-20T00:20:54.078Z,53.63
2023-02-20T00:21:54.082Z,52.80
2023-02-20T00:22:54.060Z,53.21
2023-02-20T00:23:54.049Z,53.72
2023-02-20T00:24:54.042Z,53.35
2023-02-20T00:25:54.033Z,53.12
2023-02-20T00:26:54.035Z,53.09
2023-02-20T00:27:54.016Z,53.52
2023-02-20T00:28:54.004Z,53.78
2023-02-20T00:29:53.997Z,53.66
2023-02-20T00:30:54.000Z,53.88
2023-02-20T00:31:54.031Z,52.77
2023-02-20T00:32:53.972Z,54.87
2023-02-20T00:33:53.964Z,53.05
2023-02-20T00:34:53.952Z,52.94
2023-02-20T00:35:53.939Z,53.38
2023-02-20T00:36:53.951Z,54.26
2023-02-20T00:37:53.928Z,53.59
2023-02-20T00:38:53.916Z,53.08
2023-02-20T00:39:53.906Z,52.31
2023-02-20T00:40:53.892Z,53.39
2023-02-20T00:41:53.903Z,53.43
2023-02-20T00:42:53.886Z,54.59
2023-02-20T00:43:53.873Z,53.97
2023-02-20T00:44:53.862Z,54.07
2023-02-20T00:45:53.852Z,53.33
2023-02-20T00:46:53.857Z,53.76
2023-02-20T00:47:53.829Z,53.21
2023-02-20T00:48:53.824Z,53.84
2023-02-20T00:49:53.812Z,53.69
2023-02-20T00:50:53.799Z,54.08
2023-02-20T00:51:53.791Z,54.42
2023-02-20T00:52:53.793Z,53.41
2023-02-20T00:53:53.769Z,53.23
2023-02-20T00:54:53.759Z,52.69
2023-02-20T00:55:53.749Z,52.48
2023-02-20T00:56:53.744Z,53.34
2023-02-20T00:57:53.747Z,52.15
2023-02-20T00:58:53.742Z,52.18
2023-02-20T00:59:53.715Z,52.51
2023-02-20T01:00:53.705Z,53.64
2023-02-20T01:01:53.756Z,54.11
2023-02-20T01:02:53.768Z,52.96
2023-02-20T01:03:53.681Z,52.98
2023-02-20T01:04:53.695Z,53.08
2023-02-20T01:05:53.659Z,53.02
2023-02-20T01:06:53.648Z,53.79
2023-02-20T01:07:53.655Z,53.84
2023-02-20T01:08:53.636Z,53.66
2023-02-20T01:09:53.628Z,52.67
2023-02-20T01:10:53.619Z,52.87
2023-02-20T01:11:53.605Z,51.58
2023-02-20T01:12:53.605Z,53.19
2023-02-20T01:13:53.597Z,53.11
2023-02-20T01:14:53.582Z,52.51
2023-02-20T01:15:53.615Z,52.86
2023-02-20T01:16:53.557Z,53.46
2023-02-20T01:17:53.564Z,52.55
2023-02-20T01:18:53.544Z,53.51
2023-02-20T01:19:53.537Z,52.86
2023-02-20T01:20:53.535Z,52.37
2023-02-20T01:21:53.525Z,52.65
2023-02-20T01:22:53.517Z,52.68
2023-02-20T01:23:53.498Z,53.22
2023-02-20T01:24:53.490Z,54.54
2023-02-20T01:25:53.485Z,51.93
2023-02-20T01:26:53.478Z,52.65
2023-02-20T01:27:53.472Z,52.55
2023-02-20T01:28:53.455Z,53.51
2023-02-20T01:29:53.441Z,52.16
2023-02-20T01:30:53.449Z,53.37
2023-02-20T01:31:53.495Z,53.69
2023-02-20T01:32:53.423Z,52.19
2023-02-20T01:33:53.403Z,52.19
2023-02-20T01:34:53.412Z,51.93
2023-02-20T01:35:53.389Z,52.72
2023-02-20T01:36:53.394Z,52.72
2023-02-20T01:37:53.375Z,52.41
2023-02-20T01:38:53.354Z,52.06
2023-02-20T01:39:53.354Z,52.78
2023-02-20T01:40:53.332Z,52.35
2023-02-20T01:41:53.338Z,52.68
2023-02-20T01:42:53.333Z,53.09
2023-02-20T01:43:53.319Z,52.33
2023-02-20T01:44:53.301Z,52.90
2023-02-20T01:45:53.293Z,52.25
2023-02-20T01:46:53.380Z,53.48
2023-02-20T01:47:53.285Z,52.38
2023-02-20T01:48:53.264Z,53.37
2023-02-20T01:49:53.260Z,52.63
2023-02-20T01:50:53.250Z,52.52
2023-02-20T01:51:53.262Z,51.72
2023-02-20T01:52:53.259Z,54.83
2023-02-20T01:53:53.228Z,52.94
2023-02-20T01:54:53.206Z,52.23
2023-02-20T01:55:53.203Z,53.33
2023-02-20T01:56:53.194Z,53.19
2023-02-20T01:57:53.192Z,51.73
2023-02-20T01:58:53.185Z,52.74
2023-02-20T01:59:53.157Z,53.79
2023-02-20T02:00:53.260Z,53.95
2023-02-20T02:01:53.173Z,52.33
2023-02-20T02:02:53.147Z,53.87
2023-02-20T02:03:53.122Z,53.46
2023-02-20T02:04:53.114Z,52.35
2023-02-20T02:05:53.107Z,52.94
2023-02-20T02:06:53.103Z,52.16
2023-02-20T02:07:53.096Z,52.84
2023-02-20T02:08:53.084Z,53.38
2023-02-20T02:09:53.070Z,52.79
2023-02-20T02:10:53.057Z,53.12
2023-02-20T02:11:53.048Z,52.47
2023-02-20T02:12:53.071Z,52.80
2023-02-20T02:13:53.026Z,53.65
2023-02-20T02:14:53.022Z,54.00
2023-02-20T02:15:53.033Z,52.63
2023-02-20T02:16:52.995Z,52.78
2023-02-20T02:17:53.006Z,52.83
2023-02-20T02:18:52.974Z,52.27
2023-02-20T02:19:52.967Z,53.58
2023-02-20T02:20:52.960Z,54.22
2023-02-20T02:21:52.946Z,52.80
2023-02-20T02:22:52.965Z,51.97
2023-02-20T02:23:52.934Z,53.73
2023-02-20T02:24:52.919Z,53.84
2023-02-20T02:25:52.917Z,52.36
2023-02-20T02:26:52.904Z,52.46
2023-02-20T02:27:52.912Z,52.42
2023-02-20T02:28:52.880Z,53.54
2023-02-20T02:29:52.886Z,53.59
2023-02-20T02:30:52.876Z,52.94
2023-02-20T02:31:52.917Z,52.60
2023-02-20T02:32:52.871Z,53.01
2023-02-20T02:33:52.859Z,51.74
2023-02-20T02:34:52.821Z,52.36
2023-02-20T02:35:52.815Z,52.04
2023-02-20T02:36:52.804Z,52.68
2023-02-20T02:37:52.832Z,53.32
2023-02-20T02:38:52.786Z,52.18
2023-02-20T02:39:52.775Z,53.14
2023-02-20T02:40:52.773Z,53.31
2023-02-20T02:41:52.762Z,53.60
2023-02-20T02:42:52.761Z,52.79
2023-02-20T02:43:52.742Z,52.40
2023-02-20T02:44:52.730Z,53.52
2023-02-20T02:45:52.760Z,53.15
2023-02-20T02:46:52.711Z,52.98
2023-02-20T02:47:52.716Z,52.56
2023-02-20T02:48:52.694Z,53.78
2023-02-20T02:49:52.697Z,53.49
2023-02-20T02:50:52.669Z,54.03
2023-02-20T02:51:53.664Z,53.15
2023-02-20T02:52:52.667Z,53.57
2023-02-20T02:53:52.647Z,53.47
2023-02-20T02:54:52.635Z,52.89
2023-02-20T02:55:52.629Z,52.98
2023-02-20T02:56:52.626Z,53.62
2023-02-20T02:57:52.645Z,52.79
2023-02-20T02:58:52.598Z,52.97
2023-02-20T02:59:52.590Z,53.78
2023-02-20T03:00:52.590Z,53.23
2023-02-20T03:01:52.577Z,52.27
2023-02-20T03:02:52.641Z,52.84
2023-02-20T03:03:52.566Z,51.45
2023-02-20T03:04:52.551Z,52.68
2023-02-20T03:05:52.542Z,54.12
2023-02-20T03:06:52.534Z,54.00
2023-02-20T03:07:52.525Z,54.01
2023-02-20T03:08:52.525Z,54.41
2023-02-20T03:09:52.507Z,53.53
2023-02-20T03:10:52.497Z,53.58
2023-02-20T03:11:52.483Z,54.44
2023-02-20T03:12:52.472Z,53.39
2023-02-20T03:13:52.479Z,52.67
2023-02-20T03:14:52.454Z,54.03
2023-02-20T03:15:52.456Z,53.64
2023-02-20T03:16:52.450Z,52.89
2023-02-20T03:17:52.427Z,53.06
2023-02-20T03:18:52.435Z,53.54
2023-02-20T03:19:52.415Z,53.67
2023-02-20T03:20:52.408Z,52.63
2023-02-20T03:21:52.394Z,52.52
2023-02-20T03:22:52.395Z,52.91
2023-02-20T03:23:52.388Z,54.00
2023-02-20T03:24:52.379Z,52.30
2023-02-20T03:25:52.373Z,52.84
2023-02-20T03:26:52.360Z,52.41
2023-02-20T03:27:52.366Z,53.78
2023-02-20T03:28:52.348Z,54.13
2023-02-20T03:29:52.343Z,54.08
2023-02-20T03:30:52.322Z,53.97
2023-02-20T03:31:52.437Z,53.90
2023-02-20T03:32:52.308Z,54.34
2023-02-20T03:33:52.308Z,54.43
2023-02-20T03:34:52.292Z,53.92
2023-02-20T03:35:52.285Z,54.49
2023-02-20T03:36:52.294Z,54.29
2023-02-20T03:37:52.266Z,54.63
2023-02-20T03:38:52.278Z,53.85
2023-02-20T03:39:52.255Z,53.74
2023-02-20T03:40:52.254Z,53.41
2023-02-20T03:41:52.233Z,53.98
2023-02-20T03:42:52.216Z,53.16
2023-02-20T03:43:52.211Z,52.72
2023-02-20T03:44:52.203Z,54.60
2023-02-20T03:45:52.214Z,54.24
2023-02-20T03:46:52.180Z,52.88
2023-02-20T03:47:52.169Z,52.77
2023-02-20T03:48:52.169Z,52.40
2023-02-20T03:49:52.150Z,53.48
2023-02-20T03:50:52.143Z,52.92
2023-02-20T03:51:52.128Z,53.26
2023-02-20T03:52:52.119Z,53.22
2023-02-20T03:53:52.120Z,53.33
2023-02-20T03:54:52.101Z,53.70
2023-02-20T03:55:52.093Z,53.89
2023-02-20T03:56:52.082Z,53.01
2023-02-20T03:57:52.073Z,52.94
2023-02-20T03:58:52.081Z,52.96
2023-02-20T03:59:52.059Z,52.22
2023-02-20T04:00:52.069Z,53.03
2023-02-20T04:01:52.042Z,54.43
2023-02-20T04:02:52.029Z,52.68
2023-02-20T04:03:52.037Z,53.39
2023-02-20T04:04:52.014Z,54.03
2023-02-20T04:05:52.000Z,53.38
2023-02-20T04:06:51.996Z,53.41
2023-02-20T04:07:51.995Z,53.73
2023-02-20T04:08:52.009Z,53.60
2023-02-20T04:09:51.970Z,53.99
2023-02-20T04:10:51.956Z,52.41
2023-02-20T04:11:51.948Z,53.56
2023-02-20T04:12:51.953Z,54.91
2023-02-20T04:13:51.947Z,53.99
2023-02-20T04:14:51.921Z,53.43
2023-02-20T04:15:51.919Z,53.54
2023-02-20T04:16:51.918Z,54.47
2023-02-20T04:17:51.894Z,54.27
2023-02-20T04:18:51.901Z,53.72
2023-02-20T04:19:51.879Z,54.63
2023-02-20T04:20:51.868Z,53.78
2023-02-20T04:21:51.861Z,54.66
2023-02-20T04:22:51.850Z,53.82
2023-02-20T04:23:51.857Z,53.71
2023-02-20T04:24:51.836Z,54.19
2023-02-20T04:25:51.823Z,53.09
2023-02-20T04:26:51.815Z,54.00
2023-02-20T04:27:51.808Z,54.71
2023-02-20T04:28:51.819Z,53.62
2023-02-20T04:29:51.786Z,53.99
2023-02-20T04:30:51.842Z,53.76
2023-02-20T04:31:51.796Z,53.93
2023-02-20T04:32:51.759Z,53.78
2023-02-20T04:33:51.793Z,52.82
2023-02-20T04:34:51.733Z,54.37
2023-02-20T04:35:51.732Z,54.17
2023-02-20T04:36:51.735Z,55.17
2023-02-20T04:37:51.709Z,54.15
2023-02-20T04:38:51.708Z,55.08
2023-02-20T04:39:51.686Z,53.93
2023-02-20T04:40:51.677Z,54.54
2023-02-20T04:41:51.668Z,55.02
2023-02-20T04:42:51.663Z,55.80
2023-02-20T04:43:51.660Z,55.55
2023-02-20T04:44:51.645Z,54.02
2023-02-20T04:45:51.645Z,53.58
2023-02-20T04:46:51.617Z,55.55
2023-02-20T04:47:51.608Z,53.78
2023-02-20T04:48:51.613Z,55.12
2023-02-20T04:49:51.590Z,56.23
2023-02-20T04:50:51.584Z,55.33
2023-02-20T04:51:51.573Z,55.51
2023-02-20T04:52:51.571Z,55.78
2023-02-20T04:53:51.569Z,54.58
2023-02-20T04:54:51.541Z,55.28
2023-02-20T04:55:51.536Z,54.06
2023-02-20T04:56:51.525Z,54.26
2023-02-20T04:57:51.520Z,54.25
2023-02-20T04:58:51.528Z,54.41
2023-02-20T04:59:51.499Z,55.60
2023-02-20T05:00:51.496Z,56.34
2023-02-20T05:01:51.495Z,54.73
2023-02-20T05:02:51.483Z,53.75
2023-02-20T05:03:51.484Z,54.54
2023-02-20T05:04:51.563Z,54.29
2023-02-20T05:05:51.453Z,55.03
2023-02-20T05:06:51.441Z,54.27
2023-02-20T05:07:51.430Z,54.79
2023-02-20T05:08:51.446Z,54.91
2023-02-20T05:09:51.415Z,55.49
2023-02-20T05:10:51.411Z,56.54
2023-02-20T05:11:51.401Z,54.76
2023-02-20T05:12:51.413Z,54.42
2023-02-20T05:13:51.399Z,54.58
2023-02-20T05:14:51.374Z,54.54
2023-02-20T05:15:51.374Z,54.72
2023-02-20T05:16:51.348Z,54.30
2023-02-20T05:17:51.351Z,53.94
2023-02-20T05:18:51.338Z,55.04
2023-02-20T05:19:52.340Z,54.49
2023-02-20T05:20:51.318Z,55.12
2023-02-20T05:21:51.329Z,55.58
2023-02-20T05:22:51.301Z,54.45
2023-02-20T05:23:51.323Z,54.13
2023-02-20T05:24:51.308Z,54.82
2023-02-20T05:25:51.273Z,54.75
2023-02-20T05:26:51.280Z,54.44
2023-02-20T05:27:51.258Z,55.14
2023-02-20T05:28:51.260Z,53.75
2023-02-20T05:29:51.232Z,54.82
2023-02-20T05:30:51.287Z,54.84
2023-02-20T05:31:51.281Z,54.37
2023-02-20T05:32:51.215Z,55.29
2023-02-20T05:33:51.209Z,54.08
2023-02-20T05:35:23.092Z,55.58
2023-02-20T05:35:51.177Z,52.94
2023-02-20T05:36:51.168Z,54.27
2023-02-20T05:37:51.170Z,55.15
2023-02-20T05:38:51.162Z,54.21
2023-02-20T05:39:51.155Z,54.72
2023-02-20T05:40:51.172Z,54.89
2023-02-20T05:41:51.116Z,54.93
2023-02-20T05:42:51.113Z,54.68
2023-02-20T05:43:51.116Z,54.36
2023-02-20T05:44:51.100Z,53.22
2023-02-20T05:45:51.152Z,54.18
2023-02-20T05:46:51.099Z,54.59
2023-02-20T05:47:51.064Z,53.34
2023-02-20T05:48:51.084Z,55.21
2023-02-20T05:49:51.045Z,55.29
2023-02-20T05:50:51.051Z,55.41
2023-02-20T05:51:51.026Z,54.62
2023-02-20T05:52:51.065Z,55.33
2023-02-20T05:53:51.049Z,55.64
2023-02-20T05:54:51.013Z,54.16
2023-02-20T05:55:51.015Z,53.91
2023-02-20T05:56:50.977Z,53.94
2023-02-20T05:57:50.984Z,54.98
2023-02-20T05:58:51.012Z,55.22
2023-02-20T05:59:50.999Z,54.22
2023-02-20T06:00:50.964Z,54.27
2023-02-20T06:01:51.059Z,54.28
2023-02-20T06:02:51.202Z,54.17
2023-02-20T06:03:51.032Z,55.53
2023-02-20T06:04:50.982Z,54.24
2023-02-20T06:05:50.896Z,55.07
2023-02-20T06:06:50.902Z,55.35
2023-02-20T06:07:50.885Z,54.89
2023-02-20T06:08:50.954Z,54.00
2023-02-20T06:09:50.881Z,55.00
2023-02-20T06:10:50.858Z,54.61
2023-02-20T06:11:50.862Z,55.32
2023-02-20T06:12:50.882Z,55.62
2023-02-20T06:13:50.825Z,55.15
2023-02-20T06:14:50.843Z,54.71
2023-02-20T06:15:50.937Z,54.14
2023-02-20T06:16:50.814Z,54.05
2023-02-20T06:17:50.824Z,54.45
2023-02-20T06:18:50.778Z,54.62
2023-02-20T06:19:50.827Z,54.17
2023-02-20T06:20:50.759Z,53.40
2023-02-20T06:21:50.781Z,54.74
2023-02-20T06:22:50.850Z,54.28
2023-02-20T06:23:50.741Z,54.05
2023-02-20T06:24:50.760Z,53.55
2023-02-20T06:25:50.726Z,53.78
2023-02-20T06:26:50.715Z,54.90
2023-02-20T06:27:50.701Z,55.08
2023-02-20T06:28:50.702Z,54.31
2023-02-20T06:29:50.715Z,53.58
2023-02-20T06:30:50.707Z,54.29
2023-02-20T06:31:50.775Z,53.66
2023-02-20T06:32:50.703Z,54.59
2023-02-20T06:33:50.688Z,53.93
2023-02-20T06:34:51.653Z,54.02
2023-02-20T06:35:50.657Z,55.16
2023-02-20T06:36:50.627Z,54.77
2023-02-20T06:37:50.636Z,55.02
2023-02-20T06:38:50.692Z,54.44
2023-02-20T06:39:50.615Z,53.78
2023-02-20T06:40:50.597Z,55.33
2023-02-20T06:41:50.587Z,54.08
2023-02-20T06:42:50.576Z,54.21
2023-02-20T06:43:50.598Z,54.01
2023-02-20T06:44:50.582Z,54.21
2023-02-20T06:45:50.587Z,55.15
2023-02-20T06:46:50.620Z,54.32
2023-02-20T06:47:50.538Z,54.43
2023-02-20T06:48:50.552Z,54.36
2023-02-20T06:49:50.530Z,54.75
2023-02-20T06:50:50.507Z,54.52
2023-02-20T06:51:50.567Z,53.72
2023-02-20T06:52:50.493Z,54.07
2023-02-20T06:53:50.497Z,55.06
2023-02-20T06:54:50.474Z,54.82
2023-02-20T06:55:50.478Z,55.37
2023-02-20T06:56:50.461Z,54.62
2023-02-20T06:57:50.440Z,54.89
2023-02-20T06:58:50.439Z,53.98
2023-02-20T06:59:50.441Z,55.22
2023-02-20T07:00:50.474Z,56.09
2023-02-20T07:01:50.496Z,55.15
2023-02-20T07:02:50.406Z,54.15
2023-02-20T07:03:50.391Z,55.16
2023-02-20T07:04:50.434Z,55.26
2023-02-20T07:05:50.377Z,55.10
2023-02-20T07:06:50.390Z,55.27
2023-02-20T07:07:50.412Z,55.75
2023-02-20T07:08:50.376Z,55.61
2023-02-20T07:09:50.375Z,55.26
2023-02-20T07:10:50.351Z,55.45
2023-02-20T07:11:50.330Z,55.72
2023-02-20T07:12:50.313Z,55.06
2023-02-20T07:13:50.337Z,54.64
2023-02-20T07:14:50.524Z,55.50
2023-02-20T07:15:50.338Z,55.67
2023-02-20T07:16:50.282Z,55.12
2023-02-20T07:17:50.269Z,55.32
2023-02-20T07:18:50.288Z,54.70
2023-02-20T07:19:50.280Z,54.37
2023-02-20T07:20:50.260Z,53.76
2023-02-20T07:21:50.269Z,54.70
2023-02-20T07:22:50.214Z,54.85
2023-02-20T07:23:50.230Z,55.17
2023-02-20T07:24:50.269Z,54.33
2023-02-20T07:25:50.210Z,54.45
2023-02-20T07:26:50.206Z,54.92
2023-02-20T07:27:50.206Z,54.96
2023-02-20T07:28:50.227Z,54.56
2023-02-20T07:29:50.181Z,55.20
2023-02-20T07:30:50.152Z,55.83
2023-02-20T07:31:50.234Z,55.54
2023-02-20T07:32:50.174Z,54.83
2023-02-20T07:33:50.152Z,55.30
2023-02-20T07:35:03.044Z,54.44
2023-02-20T07:35:52.130Z,54.44
2023-02-20T07:36:50.136Z,56.22
2023-02-20T07:37:50.119Z,56.42
2023-02-20T07:38:50.100Z,55.22
2023-02-20T07:39:50.087Z,55.46
2023-02-20T07:40:51.073Z,56.09
2023-02-20T07:41:50.068Z,56.70
2023-02-20T07:42:50.050Z,55.87
2023-02-20T07:43:50.057Z,55.82
2023-02-20T07:44:50.086Z,55.90
2023-02-20T07:45:50.022Z,55.16
2023-02-20T07:46:50.007Z,55.30
2023-02-20T07:47:50.046Z,55.82
2023-02-20T07:48:50.014Z,55.71
2023-02-20T07:49:50.047Z,55.52
2023-02-20T07:50:50.023Z,55.68
2023-02-20T07:51:49.969Z,56.87
2023-02-20T07:52:49.969Z,55.63
2023-02-20T07:53:49.972Z,56.11
2023-02-20T07:54:49.943Z,56.44
2023-02-20T07:55:49.927Z,55.61
2023-02-20T07:56:49.931Z,55.14
2023-02-20T07:57:49.939Z,55.44
2023-02-20T07:58:49.957Z,55.55
2023-02-20T07:59:49.918Z,55.58
2023-02-20T08:00:49.898Z,54.11
2023-02-20T08:01:49.913Z,55.38
2023-02-20T08:02:49.939Z,55.00
2023-02-20T08:03:49.857Z,55.06
2023-02-20T08:04:49.911Z,55.86
2023-02-20T08:05:50.187Z,54.75
2023-02-20T08:06:50.847Z,55.78
2023-02-20T08:07:49.863Z,54.83
2023-02-20T08:08:49.832Z,54.34
2023-02-20T08:09:49.841Z,54.17
2023-02-20T08:10:57.021Z,55.40
2023-02-20T08:11:50.771Z,54.78
2023-02-20T08:12:49.761Z,54.57
2023-02-20T08:13:49.772Z,53.59
2023-02-20T08:14:49.796Z,54.97
2023-02-20T08:15:49.776Z,54.70
2023-02-20T08:16:49.737Z,55.01
2023-02-20T08:17:52.190Z,54.23
2023-02-20T08:18:49.760Z,55.76
2023-02-20T08:19:49.731Z,53.82
2023-02-20T08:20:49.699Z,53.74
2023-02-20T08:21:49.696Z,53.25
2023-02-20T08:22:49.730Z,53.61
2023-02-20T08:23:49.663Z,53.65
2023-02-20T08:24:49.691Z,53.98
2023-02-20T08:25:49.670Z,53.25
2023-02-20T08:26:49.634Z,53.06
2023-02-20T08:27:49.661Z,53.28
2023-02-20T08:28:49.655Z,53.34
2023-02-20T08:29:49.618Z,52.41
2023-02-20T08:30:49.604Z,53.73
2023-02-20T08:31:49.750Z,53.38
2023-02-20T08:32:49.713Z,52.41
2023-02-20T08:33:49.574Z,53.82
2023-02-20T08:34:49.621Z,53.19
2023-02-20T08:35:49.625Z,52.81
2023-02-20T08:36:49.558Z,52.86
2023-02-20T08:37:49.546Z,52.06
2023-02-20T08:38:49.529Z,53.00
2023-02-20T08:39:49.547Z,52.72
2023-02-20T08:40:49.530Z,53.50
2023-02-20T08:41:49.503Z,53.20
2023-02-20T08:42:49.520Z,53.72
2023-02-20T08:43:49.475Z,52.66
2023-02-20T08:44:49.510Z,52.65
2023-02-20T08:45:49.507Z,52.67
2023-02-20T08:46:49.467Z,53.30
2023-02-20T08:47:49.446Z,53.58
2023-02-20T08:48:49.434Z,53.51
2023-02-20T08:49:50.454Z,52.99
2023-02-20T08:50:49.419Z,52.86
2023-02-20T08:51:49.411Z,52.48
2023-02-20T08:52:49.396Z,52.54
2023-02-20T08:53:49.398Z,51.94
2023-02-20T08:54:49.938Z,52.17
2023-02-20T08:55:50.419Z,52.61
2023-02-20T08:56:49.369Z,51.73
2023-02-20T08:57:49.386Z,52.29
2023-02-20T08:58:49.346Z,52.74
2023-02-20T08:59:49.394Z,53.86
2023-02-20T09:00:49.368Z,51.77
2023-02-20T09:01:49.388Z,52.93
2023-02-20T09:02:49.393Z,52.26
2023-02-20T09:03:49.296Z,51.69
2023-02-20T09:04:49.338Z,53.56
2023-02-20T09:05:49.306Z,52.77
2023-02-20T09:06:49.336Z,52.53
2023-02-20T09:07:49.307Z,52.69
2023-02-20T09:08:49.322Z,52.17
2023-02-20T09:09:49.323Z,53.49
2023-02-20T09:10:49.236Z,52.55
2023-02-20T09:11:49.230Z,54.04
2023-02-20T09:12:49.230Z,52.27
2023-02-20T09:13:49.298Z,52.25
2023-02-20T09:14:49.208Z,53.21
2023-02-20T09:15:49.280Z,52.37
2023-02-20T09:16:49.211Z,52.55
2023-02-20T09:17:49.213Z,51.76
2023-02-20T09:18:49.207Z,51.97
2023-02-20T09:19:49.178Z,52.42
2023-02-20T09:20:49.166Z,52.38
2023-02-20T09:21:49.187Z,53.36
2023-02-20T09:22:49.148Z,53.36
2023-02-20T09:23:49.239Z,52.60
2023-02-20T09:24:49.133Z,52.82
2023-02-20T09:25:49.130Z,53.22
2023-02-20T09:26:49.140Z,53.09
2023-02-20T09:27:49.100Z,52.66
2023-02-20T09:28:49.104Z,51.87
2023-02-20T09:29:49.072Z,51.50
2023-02-20T09:30:49.071Z,53.97
2023-02-20T09:31:49.122Z,52.44
2023-02-20T09:32:49.026Z,53.70
2023-02-20T09:33:51.439Z,52.69
2023-02-20T09:34:50.064Z,52.11
2023-02-20T09:35:49.003Z,51.92
2023-02-20T09:36:48.995Z,52.13
2023-02-20T09:37:48.981Z,53.06
2023-02-20T09:38:48.984Z,52.90
2023-02-20T09:39:48.967Z,52.21
2023-02-20T09:40:48.993Z,52.16
2023-02-20T09:41:48.957Z,51.95
2023-02-20T09:42:48.956Z,52.64
2023-02-20T09:43:48.924Z,52.81
2023-02-20T09:44:48.914Z,52.76
2023-02-20T09:45:48.947Z,53.02
2023-02-20T09:46:48.897Z,52.98
2023-02-20T09:47:48.901Z,52.59
2023-02-20T09:48:48.991Z,52.07
2023-02-20T09:49:48.869Z,52.16
2023-02-20T09:50:48.872Z,53.20
2023-02-20T09:51:48.856Z,52.39
2023-02-20T09:52:48.883Z,53.52
2023-02-20T09:53:48.834Z,52.48
2023-02-20T09:54:48.853Z,53.08
2023-02-20T09:55:48.831Z,54.76
2023-02-20T09:56:48.797Z,54.20
2023-02-20T09:57:48.788Z,53.04
2023-02-20T09:58:48.775Z,53.32
2023-02-20T09:59:48.771Z,52.99
2023-02-20T10:00:48.765Z,53.70
2023-02-20T10:01:48.744Z,52.30
2023-02-20T10:02:48.762Z,52.23
2023-02-20T10:03:48.721Z,52.67
2023-02-20T10:05:00.360Z,52.61
2023-02-20T10:05:50.717Z,52.96
2023-02-20T10:06:49.696Z,54.84
2023-02-20T10:07:48.688Z,53.44
2023-02-20T10:08:48.670Z,54.08
2023-02-20T10:09:48.668Z,55.72
2023-02-20T10:10:48.662Z,54.07
2023-02-20T10:11:48.637Z,54.41
2023-02-20T10:12:48.627Z,55.65
2023-02-20T10:13:48.618Z,54.61
2023-02-20T10:14:48.613Z,56.17
2023-02-20T10:15:48.652Z,56.73
2023-02-20T10:16:48.589Z,57.46
2023-02-20T10:17:48.581Z,57.41
2023-02-20T10:18:48.592Z,58.44
2023-02-20T10:19:48.585Z,57.76
2023-02-20T10:20:48.586Z,59.02
2023-02-20T10:21:48.540Z,58.67
2023-02-20T10:22:48.530Z,59.42
2023-02-20T10:23:53.968Z,60.30
2023-02-20T10:24:50.524Z,59.35
2023-02-20T10:25:48.514Z,59.60
2023-02-20T10:26:48.493Z,60.66
2023-02-20T10:27:48.489Z,59.19
2023-02-20T10:28:48.498Z,60.95
2023-02-20T10:29:48.466Z,61.88
2023-02-20T10:30:48.472Z,61.67
2023-02-20T10:31:48.535Z,61.00
2023-02-20T10:32:48.457Z,61.29
2023-02-20T10:33:48.453Z,61.06
2023-02-20T10:34:48.414Z,61.99
2023-02-20T10:35:48.419Z,60.96
2023-02-20T10:36:48.402Z,62.20
2023-02-20T10:37:48.522Z,61.28
2023-02-20T10:38:48.382Z,62.69
2023-02-20T10:39:48.361Z,62.84
2023-02-20T10:40:49.376Z,62.82
2023-02-20T10:41:48.389Z,62.07
2023-02-20T10:42:48.349Z,61.93
2023-02-20T10:43:48.337Z,62.29
2023-02-20T10:44:51.963Z,61.75
2023-02-20T10:45:49.341Z,62.22
2023-02-20T10:46:49.708Z,62.26
2023-02-20T10:47:49.306Z,61.57
2023-02-20T10:48:48.293Z,62.72
2023-02-20T10:49:48.284Z,61.83
2023-02-20T10:50:48.295Z,62.12
2023-02-20T10:51:48.290Z,62.22
2023-02-20T10:52:48.251Z,61.96
2023-02-20T10:53:48.247Z,62.35
2023-02-20T10:54:48.236Z,62.30
2023-02-20T10:55:48.232Z,62.12
2023-02-20T10:56:48.232Z,62.33
2023-02-20T10:57:48.223Z,63.46
2023-02-20T10:58:48.184Z,61.58
2023-02-20T10:59:48.182Z,61.39
2023-02-20T11:00:48.176Z,61.85
2023-02-20T11:01:48.246Z,60.57
2023-02-20T11:02:48.163Z,60.51
2023-02-20T11:03:48.149Z,60.47
2023-02-20T11:04:48.187Z,60.50
2023-02-20T11:05:49.125Z,59.31
2023-02-20T11:06:48.104Z,59.21
2023-02-20T11:07:48.096Z,60.35
2023-02-20T11:08:48.079Z,59.90
2023-02-20T11:09:48.072Z,59.46
2023-02-20T11:10:48.074Z,59.61
2023-02-20T11:11:48.059Z,59.00
2023-02-20T11:12:48.068Z,58.68
2023-02-20T11:13:48.034Z,59.75
2023-02-20T11:14:48.020Z,59.07
2023-02-20T11:15:48.084Z,59.17
2023-02-20T11:16:47.997Z,59.44
2023-02-20T11:17:47.992Z,58.72
2023-02-20T11:18:47.978Z,57.71
2023-02-20T11:19:47.994Z,58.71
2023-02-20T11:20:47.986Z,58.69
2023-02-20T11:21:47.947Z,59.60
2023-02-20T11:22:47.940Z,58.36
2023-02-20T11:23:47.924Z,58.46
2023-02-20T11:24:47.949Z,58.34
2023-02-20T11:25:47.916Z,57.96
2023-02-20T11:26:47.908Z,58.15
2023-02-20T11:27:47.915Z,57.91
2023-02-20T11:28:47.914Z,58.67
2023-02-20T11:29:47.866Z,57.80
2023-02-20T11:30:47.885Z,58.89
2023-02-20T11:31:48.059Z,57.70
2023-02-20T11:32:47.835Z,58.36
2023-02-20T11:33:47.837Z,57.98
2023-02-20T11:34:47.985Z,58.04
2023-02-20T11:36:21.102Z,57.97
2023-02-20T11:36:47.799Z,58.68
2023-02-20T11:37:54.916Z,57.86
2023-02-20T11:38:49.780Z,57.34
2023-02-20T11:39:47.770Z,58.34
2023-02-20T11:40:47.770Z,57.78
2023-02-20T11:41:47.749Z,57.43
2023-02-20T11:42:47.765Z,57.67
2023-02-20T11:44:00.958Z,58.00
2023-02-20T11:44:49.727Z,57.58
2023-02-20T11:45:47.733Z,58.19
2023-02-20T11:46:47.694Z,57.65
2023-02-20T11:47:48.698Z,58.46
2023-02-20T11:48:47.685Z,57.52
2023-02-20T11:49:47.674Z,57.75
2023-02-20T11:50:47.673Z,58.21
2023-02-20T11:51:47.649Z,57.13
2023-02-20T11:52:47.683Z,57.68
2023-02-20T11:53:47.626Z,57.48
2023-02-20T11:54:47.617Z,57.37
2023-02-20T11:55:58.711Z,57.63
2023-02-20T11:56:49.597Z,57.01
2023-02-20T11:57:47.585Z,57.13
2023-02-20T11:58:47.593Z,57.24
2023-02-20T11:59:47.569Z,57.92
2023-02-20T12:00:47.566Z,56.95
2023-02-20T12:02:00.223Z,56.77
2023-02-20T12:02:49.581Z,56.94
2023-02-20T12:03:49.797Z,57.59
2023-02-20T12:04:47.519Z,58.43
2023-02-20T12:05:47.548Z,56.40
2023-02-20T12:06:47.487Z,57.63
2023-02-20T12:07:47.493Z,57.45
2023-02-20T12:08:47.498Z,57.47
2023-02-20T12:09:47.995Z,57.63
2023-02-20T12:10:47.469Z,57.06
2023-02-20T12:11:47.455Z,58.15
2023-02-20T12:12:47.429Z,56.26
2023-02-20T12:13:47.423Z,57.10
2023-02-20T12:14:47.412Z,56.75
2023-02-20T12:15:47.458Z,56.47
2023-02-20T12:16:47.400Z,56.94
2023-02-20T12:17:47.381Z,57.27
2023-02-20T12:18:47.369Z,56.81
2023-02-20T12:19:47.357Z,56.57
2023-02-20T12:20:47.363Z,56.83
2023-02-20T12:21:47.341Z,57.56
2023-02-20T12:22:47.331Z,57.49
2023-02-20T12:23:47.318Z,57.11
2023-02-20T12:24:47.308Z,56.95
2023-02-20T12:25:47.294Z,56.96
2023-02-20T12:26:47.298Z,57.46
2023-02-20T12:27:47.287Z,57.10
2023-02-20T12:28:47.269Z,57.55
2023-02-20T12:29:47.264Z,57.71
2023-02-20T12:30:47.254Z,57.79
2023-02-20T12:31:47.294Z,57.82
2023-02-20T12:32:47.242Z,57.83
2023-02-20T12:33:47.213Z,57.09
2023-02-20T12:34:47.219Z,56.89
2023-02-20T12:35:47.227Z,57.18
2023-02-20T12:36:47.203Z,57.20
2023-02-20T12:37:47.197Z,57.83
2023-02-20T12:38:47.157Z,57.52
2023-02-20T12:39:47.154Z,57.54
2023-02-20T12:40:47.145Z,57.87
2023-02-20T12:41:47.154Z,57.17
2023-02-20T12:42:47.124Z,57.30
2023-02-20T12:43:47.135Z,56.96
2023-02-20T12:44:47.106Z,56.43
2023-02-20T12:45:47.084Z,56.96
2023-02-20T12:46:47.148Z,57.28
2023-02-20T12:47:47.081Z,57.48
2023-02-20T12:48:47.063Z,56.71
2023-02-20T12:49:47.051Z,57.58
2023-02-20T12:50:47.038Z,57.35
2023-02-20T12:51:47.034Z,57.41
2023-02-20T12:52:47.026Z,58.49